»·PEaware :: VRD5150 KPSP-KSFO

VRD5150 :: KPSP-KSFO

FLIGHT INFORMATION

Flight Status: Arrived
Operator:
Virgin America
More flights by this operator :: More flights under this callsign
Pilot: Anonymous 17686 (17686)
Aircraft: AIRBUS A320
(A320)
More flights by this aircraft type
Origin: KPSP Palm Springs Intl
United States
Destination: KSFO San Francisco Intl
United States
More flights between these airports :: More routes between these airports
Route: +CATH1 PSP V386 PMD AVE MAKRS SERFR SERFR2
File this flight plan on PilotEdge
Remarks:
Altitude:
(Current/Filed)
34,000ft
Speed:
(Current/Filed)
450kts
Departed: 30-Dec-17 09:14 PM
Arrived: 30-Dec-17 10:23 PM
Distance/Time
Traveled:
365nm/1:08
Distance/Time
To Go:
Arrived

Flight Plot

Page will automatically refresh every two minutes.


Map Options




Map Legend


Flown Route
Filed Route
Departure Airport
Arrival Airport
Navaid (VOR, NDB)
Fix

Horizontal Profiles

Position Reports

Time Latitude Longitude Heading Altitude Ground
Speed
30-Dec-17 20:59 33.821404 -116.506622 269 491ft 0kts
30-Dec-17 21:00 33.821404 -116.506622 269 491ft 0kts
30-Dec-17 21:01 33.821404 -116.506622 269 491ft 0kts
30-Dec-17 21:02 33.821404 -116.506622 269 491ft 0kts
30-Dec-17 21:03 33.821404 -116.506622 269 491ft 0kts
30-Dec-17 21:04 33.821404 -116.506622 269 491ft 0kts
30-Dec-17 21:05 33.821404 -116.506622 269 491ft 0kts
30-Dec-17 21:06 33.821404 -116.506622 269 491ft 0kts
30-Dec-17 21:07 33.821404 -116.506622 269 491ft 0kts
30-Dec-17 21:08 33.821404 -116.506622 269 491ft 0kts
30-Dec-17 21:09 33.821404 -116.506622 269 491ft 0kts
30-Dec-17 21:10 33.821361 -116.506252 284 491ft 0kts
30-Dec-17 21:11 33.821361 -116.506253 284 491ft 0kts
30-Dec-17 21:12 33.821361 -116.506253 284 491ft 0kts
30-Dec-17 21:13 33.821361 -116.506253 284 491ft 0kts
30-Dec-17 21:14 33.821361 -116.506253 284 491ft 0kts
30-Dec-17 21:15 33.821581 -116.506336 16 491ft 4kts
30-Dec-17 21:16 33.822640 -116.503467 142 491ft 12kts
30-Dec-17 21:17 33.819490 -116.500643 144 491ft 15kts
30-Dec-17 21:18 33.818485 -116.499243 82 491ft 0kts
30-Dec-17 21:19 33.819559 -116.498660 323 491ft 18kts
30-Dec-17 21:20 33.854813 -116.523252 354 2176ft 205kts
30-Dec-17 21:21 33.875447 -116.470978 105 4826ft 239kts
30-Dec-17 21:22 33.852187 -116.386888 119 7547ft 287kts
30-Dec-17 21:23 33.828023 -116.294899 72 10595ft 311kts
30-Dec-17 21:24 33.903533 -116.246111 344 12232ft 364kts
30-Dec-17 21:25 33.981908 -116.322970 311 14939ft 376kts
30-Dec-17 21:26 34.055013 -116.417244 311 17407ft 391kts
30-Dec-17 21:27 34.136128 -116.507478 331 19582ft 410kts
30-Dec-17 21:28 34.240757 -116.568142 329 21597ft 422kts
30-Dec-17 21:29 34.352413 -116.619053 339 23241ft 437kts
30-Dec-17 21:30 34.461833 -116.677895 315 23253ft 428kts
30-Dec-17 21:31 34.506621 -116.803542 273 23251ft 413kts
30-Dec-17 21:32 34.519921 -116.941846 275 23236ft 414kts
30-Dec-17 21:33 34.534398 -117.080419 274 23748ft 419kts
30-Dec-17 21:34 34.548847 -117.221582 274 25567ft 424kts
30-Dec-17 21:35 34.563259 -117.364709 274 27109ft 431kts
30-Dec-17 21:36 34.577838 -117.510505 274 28554ft 437kts
30-Dec-17 21:37 34.592316 -117.657403 274 29961ft 438kts
30-Dec-17 21:38 34.606390 -117.801974 275 31884ft 426kts
30-Dec-17 21:39 34.619979 -117.943521 275 33543ft 416kts
30-Dec-17 21:40 34.640960 -118.079789 292 34155ft 414kts
30-Dec-17 21:41 34.704723 -118.197893 300 34156ft 418kts
30-Dec-17 21:42 34.768304 -118.316113 299 34130ft 419kts
30-Dec-17 21:43 34.832454 -118.434527 299 34184ft 419kts
30-Dec-17 21:44 34.896432 -118.553479 299 34235ft 419kts
30-Dec-17 21:45 34.960209 -118.672329 299 34242ft 420kts
30-Dec-17 21:46 35.023997 -118.791600 299 34234ft 420kts
30-Dec-17 21:47 35.087915 -118.911561 298 34217ft 421kts
30-Dec-17 21:48 35.151207 -119.030632 298 34197ft 421kts
30-Dec-17 21:49 35.214809 -119.150899 298 34190ft 421kts
30-Dec-17 21:50 35.278291 -119.271208 298 34179ft 421kts
30-Dec-17 21:51 35.341742 -119.391930 298 34170ft 422kts
30-Dec-17 21:52 35.405375 -119.513391 298 34167ft 423kts
30-Dec-17 21:53 35.468695 -119.634691 298 34182ft 423kts
30-Dec-17 21:54 35.532077 -119.756562 298 34181ft 424kts
30-Dec-17 21:55 35.595674 -119.879213 297 34184ft 425kts
30-Dec-17 21:56 35.649963 -120.006220 278 34170ft 415kts
30-Dec-17 21:57 35.663302 -120.147118 273 34166ft 414kts
30-Dec-17 21:58 35.677360 -120.287164 274 34163ft 414kts
30-Dec-17 21:59 35.711967 -120.422277 292 34154ft 422kts
30-Dec-17 22:00 35.762733 -120.552669 290 34151ft 421kts
30-Dec-17 22:01 35.812353 -120.683382 291 34136ft 422kts
30-Dec-17 22:02 35.862097 -120.814717 290 34145ft 422kts
30-Dec-17 22:03 35.911606 -120.945798 290 34130ft 422kts
30-Dec-17 22:04 35.960952 -121.077147 290 34124ft 423kts
30-Dec-17 22:05 36.010263 -121.208785 290 33502ft 421kts
30-Dec-17 22:06 36.061236 -121.340284 298 32507ft 432kts
30-Dec-17 22:07 36.157806 -121.434859 323 31191ft 452kts
30-Dec-17 22:08 36.263398 -121.516844 322 28356ft 443kts
30-Dec-17 22:09 36.366533 -121.597578 323 25714ft 431kts
30-Dec-17 22:10 36.465489 -121.675576 324 23024ft 413kts
30-Dec-17 22:11 36.558067 -121.748553 324 21259ft 381kts
30-Dec-17 22:12 36.641801 -121.814798 323 20029ft 344kts
30-Dec-17 22:13 36.727134 -121.882708 325 16536ft 376kts
30-Dec-17 22:14 36.824252 -121.917386 345 15176ft 357kts
30-Dec-17 22:15 36.920380 -121.944109 344 13232ft 348kts
30-Dec-17 22:16 37.010956 -121.975899 339 11327ft 331kts
30-Dec-17 22:17 37.092513 -122.007872 340 10214ft 291kts
30-Dec-17 22:18 37.169800 -122.038135 341 8581ft 293kts
30-Dec-17 22:19 37.247050 -122.068433 342 6934ft 284kts
30-Dec-17 22:20 37.319787 -122.097518 341 5995ft 247kts
30-Dec-17 22:21 37.379281 -122.120936 342 5178ft 216kts
30-Dec-17 22:22 37.436185 -122.143274 343 4006ft 209kts
30-Dec-17 22:23 37.491991 -122.162076 349 3829ft 196kts
30-Dec-17 22:24 37.539775 -122.186948 300 2904ft 193kts
30-Dec-17 22:25 37.564174 -122.245109 297 2035ft 172kts
30-Dec-17 22:26 37.584152 -122.292646 296 1215ft 135kts
30-Dec-17 22:27 37.601991 -122.335184 297 585ft 132kts
30-Dec-17 22:28 37.617541 -122.372136 298 27ft 96kts
30-Dec-17 22:29 37.622107 -122.385154 263 27ft 4kts
30-Dec-17 22:30 37.621193 -122.385714 119 27ft 8kts
30-Dec-17 22:31 37.619635 -122.381817 120 27ft 14kts
30-Dec-17 22:32 37.618289 -122.380789 238 27ft 2kts
30-Dec-17 22:33 37.618255 -122.380853 234 27ft 0kts
30-Dec-17 22:34 37.618255 -122.380853 234 27ft 0kts
30-Dec-17 22:35 37.618255 -122.380853 234 27ft 0kts
30-Dec-17 22:36 37.618255 -122.380853 234 27ft 0kts
30-Dec-17 22:37 37.618255 -122.380853 234 27ft 0kts
30-Dec-17 22:38 37.618255 -122.380853 234 27ft 0kts
30-Dec-17 22:39 37.618255 -122.380853 234 27ft 0kts
30-Dec-17 22:40 37.618255 -122.380853 234 27ft 0kts
30-Dec-17 22:41 37.618255 -122.380853 234 27ft 0kts
30-Dec-17 22:42 37.618255 -122.380853 234 27ft 0kts

Navigation Log

Ident Type
1. KPSP Airport
2. PSP Navaid
3. YUCCA Fix
4. OKACO Fix
5. SOGGI Fix
6. APLES Fix
7. ZOREN Fix
8. PMD Navaid
9. AVE Navaid
10. MAKRS Fix
11. KSFO Airport